Terminal Aerodrome Forecast
Issued by NWS North Platte, NE

Home | Current Version | Previous Version | Graphics & Text | Print | Product List | Glossary Off
Versions: 1 2 3 4 5 6 7 8 9 10 11 12 13 14

000
FTUS43 KLBF 291720
TAFVTN
TAF
KVTN 291720Z 2918/3018 14008KT P6SM SCT250
     FM292100 12010KT P6SM SCT100 BKN250
     FM300300 19006KT P6SM FEW100 BKN250=

USA.gov is the U.S. government's official web portal to all federal, state and local government web resources and services.